Time,TemperatureF,DewpointF,PressureIn,WindDirection,WindDirectionDegrees,WindSpeedMPH,WindSpeedGustMPH,Humidity,HourlyPrecipIn,Conditions,Clouds,dailyrainin,SoftwareType,DateUTC
2013-08-11 00:14:00,67.0,37.0,31.97,East,87,1.0,5.0,33,0.00,,,0.00,weatherlink.com 1.10,2013-08-11 06:14:00,
2013-08-11 00:29:00,66.9,36.0,31.97,East,85,2.0,8.0,32,0.00,,,0.00,weatherlink.com 1.10,2013-08-11 06:29:00,
2013-08-11 00:44:00,66.7,37.0,31.97,ESE,110,4.0,10.0,33,0.00,,,0.00,weatherlink.com 1.10,2013-08-11 06:44:00,
2013-08-11 01:14:00,66.1,37.0,31.97,ENE,73,1.0,7.0,34,0.00,,,0.00,weatherlink.com 1.10,2013-08-11 07:14:00,
2013-08-11 01:29:00,66.1,37.0,31.97,East,97,5.0,7.0,34,0.00,,,0.00,weatherlink.com 1.10,2013-08-11 07:29:00,
2013-08-11 01:44:00,67.0,37.0,31.97,SSW,192,2.0,5.0,33,0.00,,,0.00,weatherlink.com 1.10,2013-08-11 07:44:00,
2013-08-11 01:59:00,66.4,36.0,31.97,SE,126,2.0,4.0,33,0.00,,,0.00,weatherlink.com 1.10,2013-08-11 07:59:00,
2013-08-11 02:14:00,65.9,38.0,31.97,ENE,69,5.0,13.0,36,0.00,,,0.00,weatherlink.com 1.10,2013-08-11 08:14:00,
2013-08-11 03:29:00,64.3,39.0,31.97,ESE,107,12.0,17.0,39,0.00,,,0.00,weatherlink.com 1.10,2013-08-11 09:29:00,
2013-08-11 03:44:00,64.0,39.0,31.97,East,97,7.0,11.0,40,0.00,,,0.00,weatherlink.com 1.10,2013-08-11 09:44:00,
2013-08-11 03:59:00,63.6,39.0,31.97,ESE,105,9.0,13.0,41,0.00,,,0.00,weatherlink.com 1.10,2013-08-11 09:59:00,
2013-08-11 04:29:00,63.3,39.0,31.97,ESE,111,7.0,11.0,41,0.00,,,0.00,weatherlink.com 1.10,2013-08-11 10:29:00,
2013-08-11 04:44:00,63.3,39.0,31.97,ESE,123,7.0,8.0,41,0.00,,,0.00,weatherlink.com 1.10,2013-08-11 10:44:00,
2013-08-11 04:59:00,63.4,39.0,31.97,ESE,111,5.0,7.0,40,0.00,,,0.00,weatherlink.com 1.10,2013-08-11 10:59:00,
2013-08-11 05:14:00,64.0,38.0,31.97,SE,125,6.0,8.0,39,0.00,,,0.00,weatherlink.com 1.10,2013-08-11 11:14:00,
2013-08-11 05:44:00,63.3,38.0,31.97,SE,128,5.0,7.0,40,0.00,,,0.00,weatherlink.com 1.10,2013-08-11 11:44:00,
2013-08-11 05:59:00,63.6,38.0,31.97,SSE,150,12.0,13.0,39,0.00,,,0.00,weatherlink.com 1.10,2013-08-11 11:59:00,
2013-08-11 06:14:00,62.9,39.0,31.97,SE,138,8.0,12.0,41,0.00,,,0.00,weatherlink.com 1.10,2013-08-11 12:14:00,
2013-08-11 06:30:00,61.2,39.0,31.97,ESE,123,9.0,10.0,44,0.00,,,0.00,weatherlink.com 1.10,2013-08-11 12:30:00,
2013-08-11 06:45:00,60.6,39.0,31.97,SE,132,8.0,9.0,45,0.00,,,0.00,weatherlink.com 1.10,2013-08-11 12:45:00,
2013-08-11 07:00:00,59.7,39.0,31.97,ESE,115,8.0,10.0,47,0.00,,,0.00,weatherlink.com 1.10,2013-08-11 13:00:00,
2013-08-11 07:15:00,60.5,39.0,31.97,ESE,121,7.0,9.0,45,0.00,,,0.00,weatherlink.com 1.10,2013-08-11 13:15:00,
2013-08-11 07:30:00,60.6,39.0,31.97,ESE,114,7.0,9.0,45,0.00,,,0.00,weatherlink.com 1.10,2013-08-11 13:30:00,
2013-08-11 08:15:00,60.3,41.0,31.97,SE,135,6.0,7.0,49,0.00,,,0.00,weatherlink.com 1.10,2013-08-11 14:15:00,
2013-08-11 08:30:00,60.4,41.0,31.97,SE,124,5.0,7.0,49,0.00,,,0.00,weatherlink.com 1.10,2013-08-11 14:30:00,
2013-08-11 08:45:00,60.6,41.0,31.97,ESE,117,5.0,7.0,49,0.00,,,0.00,weatherlink.com 1.10,2013-08-11 14:45:00,
2013-08-11 09:00:00,60.9,41.0,31.97,ESE,104,5.0,7.0,48,0.00,,,0.00,weatherlink.com 1.10,2013-08-11 15:00:00,
2013-08-11 09:15:00,61.2,40.0,31.97,ESE,121,7.0,7.0,46,0.00,,,0.00,weatherlink.com 1.10,2013-08-11 15:15:00,
2013-08-11 09:30:00,61.5,40.0,31.97,SE,132,5.0,7.0,46,0.00,,,0.00,weatherlink.com 1.10,2013-08-11 15:30:00,
2013-08-11 10:00:00,62.6,40.0,31.97,SSE,152,3.0,4.0,44,0.00,,,0.00,weatherlink.com 1.10,2013-08-11 16:00:00,
2013-08-11 10:15:00,63.6,41.0,31.97,South,176,2.0,4.0,44,0.00,,,0.00,weatherlink.com 1.10,2013-08-11 16:15:00,
2013-08-11 10:30:00,64.2,42.0,31.97,SSW,206,0.0,4.0,44,0.00,,,0.00,weatherlink.com 1.10,2013-08-11 16:30:00,
2013-08-11 11:00:00,66.7,43.0,31.97,ENE,69,1.0,5.0,42,0.00,,,0.00,weatherlink.com 1.10,2013-08-11 17:00:00,
2013-08-11 11:15:00,68.2,43.0,31.97,SE,129,3.0,4.0,40,0.00,,,0.00,weatherlink.com 1.10,2013-08-11 17:15:00,
2013-08-11 11:30:00,69.1,43.0,31.97,ENE,74,2.0,6.0,39,0.00,,,0.00,weatherlink.com 1.10,2013-08-11 17:30:00,
2013-08-11 12:00:00,69.9,45.0,31.97,SSW,194,4.0,5.0,41,0.00,,,0.00,weatherlink.com 1.10,2013-08-11 18:00:00,
2013-08-11 12:15:00,67.4,43.0,31.97,SW,218,5.0,6.0,42,0.00,,,0.00,weatherlink.com 1.10,2013-08-11 18:15:00,
2013-08-11 12:30:00,66.3,41.0,31.97,SSW,192,5.0,7.0,40,0.00,,,0.00,weatherlink.com 1.10,2013-08-11 18:30:00,
2013-08-11 12:45:00,64.5,43.0,31.97,SSE,167,5.0,7.0,45,0.00,,,0.00,weatherlink.com 1.10,2013-08-11 18:45:00,
2013-08-11 13:00:00,62.8,42.0,31.97,South,170,7.0,10.0,46,0.00,,,0.00,weatherlink.com 1.10,2013-08-11 19:00:00,
2013-08-11 13:15:00,64.1,40.0,31.97,South,191,6.0,13.0,41,0.00,,,0.00,weatherlink.com 1.10,2013-08-11 19:15:00,
2013-08-11 13:30:00,64.7,40.0,31.97,SSE,165,5.0,10.0,40,0.00,,,0.00,weatherlink.com 1.10,2013-08-11 19:30:00,
2013-08-11 13:45:00,66.3,38.0,31.97,SSE,157,8.0,11.0,36,0.00,,,0.00,weatherlink.com 1.10,2013-08-11 19:45:00,
2013-08-11 14:00:00,66.8,37.0,31.97,SSE,156,6.0,12.0,34,0.00,,,0.00,weatherlink.com 1.10,2013-08-11 20:00:00,
2013-08-11 14:15:00,66.2,40.0,31.97,SE,141,9.0,14.0,38,0.00,,,0.00,weatherlink.com 1.10,2013-08-11 20:15:00,
2013-08-11 14:30:00,66.1,40.0,31.97,SE,136,7.0,14.0,39,0.00,,,0.00,weatherlink.com 1.10,2013-08-11 20:30:00,
2013-08-11 14:45:00,66.5,40.0,31.97,SE,139,8.0,13.0,38,0.00,,,0.00,weatherlink.com 1.10,2013-08-11 20:45:00,
2013-08-11 15:46:00,72.9,40.0,31.97,NE,55,4.0,9.0,31,0.00,,,0.00,weatherlink.com 1.10,2013-08-11 21:46:00,
2013-08-11 16:01:00,73.7,38.0,31.97,NE,46,3.0,9.0,27,0.00,,,0.00,weatherlink.com 1.10,2013-08-11 22:01:00,
2013-08-11 16:16:00,74.4,35.0,31.97,NE,35,6.0,8.0,24,0.00,,,0.00,weatherlink.com 1.10,2013-08-11 22:16:00,
2013-08-11 16:31:00,75.9,43.0,31.97,NW,311,3.0,6.0,31,0.00,,,0.00,weatherlink.com 1.10,2013-08-11 22:31:00,
2013-08-11 16:46:00,75.3,42.0,31.97,NW,317,2.0,6.0,30,0.00,,,0.00,weatherlink.com 1.10,2013-08-11 22:46:00,
2013-08-11 17:31:00,71.9,40.0,31.97,WNW,298,4.0,9.0,31,0.00,,,0.00,weatherlink.com 1.10,2013-08-11 23:31:00,
2013-08-11 17:46:00,72.5,38.0,31.97,NW,315,4.0,9.0,29,0.00,,,0.00,weatherlink.com 1.10,2013-08-11 23:46:00,
2013-08-11 18:01:00,71.9,39.0,31.97,WNW,293,4.0,7.0,30,0.00,,,0.00,weatherlink.com 1.10,2013-08-12 00:01:00,
2013-08-11 18:16:00,71.2,38.0,31.97,WNW,294,6.0,8.0,30,0.00,,,0.00,weatherlink.com 1.10,2013-08-12 00:16:00,
2013-08-11 18:31:00,71.1,38.0,31.97,NW,311,6.0,8.0,30,0.00,,,0.00,weatherlink.com 1.10,2013-08-12 00:31:00,
2013-08-11 18:46:00,71.0,37.0,31.97,WNW,293,1.0,8.0,29,0.00,,,0.00,weatherlink.com 1.10,2013-08-12 00:46:00,
2013-08-11 19:01:00,70.9,40.0,31.97,NNE,14,3.0,5.0,32,0.00,,,0.00,weatherlink.com 1.10,2013-08-12 01:01:00,
2013-08-11 19:31:00,69.9,38.0,31.97,NE,49,3.0,4.0,31,0.00,,,0.00,weatherlink.com 1.10,2013-08-12 01:31:00,
2013-08-11 20:16:00,69.7,38.0,31.97,SW,223,5.0,6.0,31,0.00,,,0.00,weatherlink.com 1.10,2013-08-12 02:16:00,
2013-08-11 20:31:00,68.2,42.0,31.97,South,188,6.0,7.0,39,0.00,,,0.00,weatherlink.com 1.10,2013-08-12 02:31:00,
2013-08-11 20:46:00,67.9,39.0,31.97,SSW,193,4.0,6.0,35,0.00,,,0.00,weatherlink.com 1.10,2013-08-12 02:46:00,
2013-08-11 21:01:00,67.9,38.0,31.97,SSW,192,7.0,8.0,34,0.00,,,0.00,weatherlink.com 1.10,2013-08-12 03:01:00,
2013-08-11 21:16:00,66.9,41.0,31.97,SSE,162,12.0,13.0,39,0.00,,,0.00,weatherlink.com 1.10,2013-08-12 03:16:00,
2013-08-11 21:31:00,65.7,39.0,31.97,SE,137,12.0,17.0,38,0.00,,,0.00,weatherlink.com 1.10,2013-08-12 03:31:00,
2013-08-11 22:01:00,65.9,39.0,31.97,SSE,157,16.0,19.0,37,0.00,,,0.00,weatherlink.com 1.10,2013-08-12 04:01:00,
2013-08-11 22:16:00,66.2,38.0,31.97,SE,144,13.0,21.0,35,0.00,,,0.00,weatherlink.com 1.10,2013-08-12 04:16:00,
2013-08-11 22:31:00,65.5,38.0,31.97,SSE,152,11.0,16.0,36,0.00,,,0.00,weatherlink.com 1.10,2013-08-12 04:31:00,
2013-08-11 22:46:00,65.9,37.0,31.97,SSE,167,9.0,11.0,35,0.00,,,0.00,weatherlink.com 1.10,2013-08-12 04:46:00,
2013-08-11 23:01:00,66.0,37.0,31.97,East,87,3.0,7.0,35,0.00,,,0.00,weatherlink.com 1.10,2013-08-12 05:01:00,
2013-08-11 23:16:00,65.2,37.0,31.97,ENE,67,4.0,7.0,35,0.00,,,0.00,weatherlink.com 1.10,2013-08-12 05:16:00,
2013-08-11 23:31:00,65.2,37.0,31.97,NE,54,5.0,6.0,35,0.00,,,0.00,weatherlink.com 1.10,2013-08-12 05:31:00,
2013-08-11 23:46:00,65.4,37.0,31.97,NE,38,3.0,8.0,35,0.00,,,0.00,weatherlink.com 1.10,2013-08-12 05:46:00,